createdAt,value
2022-09-18T00:01:46.586Z,4.60
2022-09-18T00:08:32.197Z,5.50
2022-09-18T00:15:17.642Z,4.53
2022-09-18T00:22:05.588Z,5.00
2022-09-18T00:28:51.158Z,5.07
2022-09-18T00:35:36.585Z,4.95
2022-09-18T00:42:24.832Z,4.82
2022-09-18T00:49:17.129Z,5.40
2022-09-18T00:56:04.564Z,4.93
2022-09-18T01:02:53.367Z,4.50
2022-09-18T01:09:48.683Z,5.07
2022-09-18T01:16:46.079Z,4.32
2022-09-18T01:31:07.978Z,5.10
2022-09-18T01:37:58.840Z,5.05
2022-09-18T01:44:47.944Z,5.00
2022-09-18T01:51:42.138Z,5.00
2022-09-18T01:58:31.278Z,5.20
2022-09-18T02:05:24.606Z,5.10
2022-09-18T02:12:18.157Z,5.20
2022-09-18T02:19:12.451Z,4.70
2022-09-18T02:26:04.397Z,5.05
2022-09-18T02:32:57.300Z,4.95
2022-09-18T02:39:56.014Z,4.68
2022-09-18T03:00:36.361Z,4.70
2022-09-18T03:07:29.199Z,5.25
2022-09-18T03:14:17.884Z,5.15
2022-09-18T03:21:07.217Z,5.10
2022-09-18T03:27:56.295Z,5.13
2022-09-18T03:34:50.108Z,4.95
2022-09-18T03:41:38.238Z,5.53
2022-09-18T03:48:25.820Z,4.90
2022-09-18T03:55:12.754Z,5.70
2022-09-18T04:02:16.246Z,5.72
2022-09-18T04:09:24.513Z,5.70
2022-09-18T04:16:12.474Z,6.30
2022-09-18T04:23:00.725Z,5.90
2022-09-18T04:29:46.192Z,5.53
2022-09-18T04:36:33.857Z,5.70
2022-09-18T04:43:21.864Z,5.50
2022-09-18T04:50:08.851Z,4.70
2022-09-18T04:56:54.421Z,4.00
2022-09-18T05:03:42.833Z,3.90
2022-09-18T05:10:35.320Z,4.50
2022-09-18T05:17:22.681Z,5.72
2022-09-18T05:24:20.661Z,5.13
2022-09-18T05:31:08.599Z,5.38
2022-09-18T05:38:02.004Z,5.90
2022-09-18T05:44:51.604Z,5.88
2022-09-18T05:51:44.698Z,5.30
2022-09-18T05:58:31.166Z,5.60
2022-09-18T06:05:19.269Z,5.75
2022-09-18T06:12:05.313Z,5.40
2022-09-18T06:18:53.681Z,4.90
2022-09-18T06:25:42.992Z,5.32
2022-09-18T06:32:28.583Z,4.80
2022-09-18T06:39:14.541Z,4.10
2022-09-18T06:46:04.484Z,4.03
2022-09-18T06:52:56.464Z,4.57
2022-09-18T06:59:42.205Z,3.80
2022-09-18T07:06:30.589Z,3.80
2022-09-18T07:13:16.240Z,4.18
2022-09-18T07:20:04.924Z,4.00
2022-09-18T07:27:02.527Z,3.40
2022-09-18T07:33:47.952Z,3.38
2022-09-18T07:40:37.725Z,3.88
2022-09-18T07:47:28.970Z,4.00
2022-09-18T07:54:18.837Z,3.88
2022-09-18T08:01:19.285Z,4.00
2022-09-18T08:08:17.056Z,3.50
2022-09-18T08:15:19.420Z,3.47
2022-09-18T08:22:27.813Z,3.70
2022-09-18T08:29:19.323Z,3.80
2022-09-18T08:36:21.236Z,3.60
2022-09-18T08:43:30.504Z,4.00
2022-09-18T08:50:24.389Z,4.15
2022-09-18T08:57:22.662Z,4.35
2022-09-18T09:04:28.539Z,4.13
2022-09-18T09:11:29.237Z,4.20
2022-09-18T09:18:21.201Z,4.30
2022-09-18T09:25:22.707Z,4.40
2022-09-18T09:32:37.672Z,4.47
2022-09-18T09:39:43.149Z,4.10
2022-09-18T09:46:57.895Z,4.05
2022-09-18T09:53:46.473Z,3.60
2022-09-18T10:00:38.320Z,4.10
2022-09-18T10:07:34.404Z,4.30
2022-09-18T10:14:29.385Z,4.00
2022-09-18T10:21:19.593Z,4.50
2022-09-18T10:28:06.233Z,3.80
2022-09-18T10:34:54.359Z,4.23
2022-09-18T10:41:43.204Z,3.78
2022-09-18T10:48:30.507Z,4.15
2022-09-18T10:55:23.493Z,3.60
2022-09-18T11:09:13.579Z,5.30
2022-09-18T11:16:07.532Z,4.00
2022-09-18T11:22:53.749Z,4.07
2022-09-18T11:29:51.458Z,3.80
2022-09-18T11:36:41.072Z,4.00
2022-09-18T11:43:29.868Z,4.28
2022-09-18T11:50:21.867Z,3.65
2022-09-18T11:57:20.676Z,4.10
2022-09-18T12:04:16.301Z,3.85
2022-09-18T12:11:15.242Z,4.30
2022-09-18T12:18:11.277Z,4.65
2022-09-18T12:24:58.948Z,3.63
2022-09-18T12:32:23.232Z,3.47
2022-09-18T12:39:39.272Z,3.00
2022-09-18T12:46:50.495Z,3.10
2022-09-18T12:53:56.441Z,3.20
2022-09-18T13:00:49.497Z,3.13
2022-09-18T13:07:40.169Z,3.00
2022-09-18T13:14:31.760Z,3.60
2022-09-18T13:21:26.987Z,3.70
2022-09-18T13:28:18.095Z,4.72
2022-09-18T13:35:07.001Z,5.90
2022-09-18T13:41:58.826Z,5.57
2022-09-18T13:48:55.883Z,5.68
2022-09-18T13:55:53.069Z,5.78
2022-09-18T14:02:42.700Z,5.40
2022-09-18T14:09:50.316Z,5.72
2022-09-18T14:16:43.702Z,5.82
2022-09-18T14:24:41.039Z,5.22
2022-09-18T14:31:32.147Z,5.57
2022-09-18T14:38:29.623Z,5.00
2022-09-18T14:45:29.948Z,6.22
2022-09-18T14:52:24.193Z,5.00
2022-09-18T14:59:15.600Z,5.30
2022-09-18T15:06:15.451Z,5.20
2022-09-18T15:13:02.030Z,5.63
2022-09-18T15:20:02.376Z,5.00
2022-09-18T15:26:56.125Z,5.10
2022-09-18T15:33:51.758Z,4.93
2022-09-18T15:40:40.271Z,4.95
2022-09-18T15:47:38.472Z,5.13
2022-09-18T15:54:29.660Z,5.00
2022-09-18T16:01:39.929Z,4.93
2022-09-18T16:08:32.504Z,4.93
2022-09-18T16:15:25.596Z,5.32
2022-09-18T16:22:14.068Z,5.20
2022-09-18T16:29:06.320Z,4.90
2022-09-18T16:35:59.117Z,4.88
2022-09-18T16:42:44.453Z,5.28
2022-09-18T16:49:36.991Z,5.75
2022-09-18T16:56:29.803Z,5.15
2022-09-18T17:03:16.136Z,5.30
2022-09-18T17:10:04.344Z,5.75
2022-09-18T17:16:49.914Z,5.05
2022-09-18T17:23:36.697Z,4.90
2022-09-18T17:30:25.449Z,4.93
2022-09-18T17:37:10.895Z,5.35
2022-09-18T17:43:56.991Z,5.50
2022-09-18T17:50:45.103Z,5.35
2022-09-18T17:57:31.179Z,5.65
2022-09-18T18:04:17.933Z,5.20
2022-09-18T18:11:11.253Z,5.35
2022-09-18T18:17:56.771Z,5.30
2022-09-18T18:24:42.320Z,5.53
2022-09-18T18:31:31.628Z,5.50
2022-09-18T18:38:17.423Z,11.90
2022-09-18T18:52:04.502Z,9.85
2022-09-18T18:58:50.700Z,6.55
2022-09-18T19:05:36.556Z,5.80
2022-09-18T19:12:26.665Z,5.70
2022-09-18T19:19:12.166Z,5.60
2022-09-18T19:26:00.111Z,5.68
2022-09-18T19:32:49.104Z,5.68
2022-09-18T19:39:34.526Z,5.80
2022-09-18T19:46:30.034Z,5.47
2022-09-18T19:53:18.048Z,5.38
2022-09-18T20:00:03.368Z,5.20
2022-09-18T20:06:57.436Z,5.10
2022-09-18T20:13:45.416Z,6.50
2022-09-18T20:20:31.688Z,5.15
2022-09-18T20:27:17.162Z,4.70
2022-09-18T20:34:06.060Z,4.30
2022-09-18T20:41:06.660Z,4.50
2022-09-18T20:47:52.436Z,4.30
2022-09-18T20:54:41.635Z,4.30
2022-09-18T21:01:30.400Z,4.50
2022-09-18T21:08:16.210Z,5.00
2022-09-18T21:15:05.357Z,4.60
2022-09-18T21:21:51.786Z,4.30
2022-09-18T21:28:37.129Z,4.63
2022-09-18T21:35:25.666Z,6.43
2022-09-18T21:42:12.321Z,4.70
2022-09-18T21:48:57.652Z,4.35
2022-09-18T21:55:45.580Z,4.00
2022-09-18T22:02:30.918Z,4.60
2022-09-18T22:09:18.948Z,3.80
2022-09-18T22:16:07.622Z,4.00
2022-09-18T22:22:52.980Z,4.20
2022-09-18T22:29:41.171Z,5.00
2022-09-18T22:36:29.923Z,4.88
2022-09-18T22:43:15.624Z,4.70
2022-09-18T22:50:00.978Z,4.95
2022-09-18T22:56:52.312Z,4.00
2022-09-18T23:03:38.203Z,4.25
2022-09-18T23:10:23.650Z,4.50
2022-09-18T23:17:11.755Z,4.70
2022-09-18T23:23:58.663Z,4.35
2022-09-18T23:37:32.076Z,3.90
2022-09-18T23:44:20.284Z,4.90
2022-09-18T23:51:08.289Z,4.90
2022-09-18T23:57:56.307Z,5.30
